Terminal Aerodrome Forecast
Issued by NWS Newport/Morehead City, NC

Home | Current Version | Previous Version | Text Only | Print | Product List | Glossary Off
Versions: 1 2 3 4 5 6 7 8 9 10 11 12 13 14 15 16 17 18 19 20 21 22 23 24 25 26 27 28 29 30 31 32 33 34 35 36 37

000
FTUS42 KMHX 240400 AAC
TAFEWN
TAF AMD
KEWN 240438Z 2405/2424 VRB03KT 4SM -RA BR BKN006 OVC015
     FM240900 15005KT 3SM -RA BR OVC005
     FM241400 18012KT 4SM -RA BR BKN008=

USA.gov is the U.S. government's official web portal to all federal, state and local government web resources and services.